Terminal Aerodrome Forecast
Issued by NWS Dallas/Fort Worth, TX

Home | Current Version | Previous Version | Text Only | Print | Product List | Glossary On
Versions: 1 2 3 4 5 6 7 8 9 10 11 12 13 14 15 16 17 18 19 20 21 22 23 24 25 26 27
291
FTUS44 KFWD 101127
TAFACT
TAF
KACT 101127Z 1012/1112 14008KT P6SM BKN040
     FM101800 16010KT P6SM BKN025
     FM102000 16012KT P6SM BKN025
     FM110300 17015KT P6SM -DZ OVC012=

USA.gov is the U.S. government's official web portal to all federal, state and local government web resources and services.